sensor_id;sensor_type;location;lat;lon;timestamp;temperature;humidity
40808;DHT22;26523;52.504;13.498;2022-12-18T00:01:01;-4.90;99.90
40808;DHT22;26523;52.504;13.498;2022-12-18T00:03:34;-5.00;99.90
40808;DHT22;26523;52.504;13.498;2022-12-18T00:06:00;-5.10;99.90
40808;DHT22;26523;52.504;13.498;2022-12-18T00:08:25;-5.10;99.90
40808;DHT22;26523;52.504;13.498;2022-12-18T00:10:51;-5.20;99.90
40808;DHT22;26523;52.504;13.498;2022-12-18T00:13:17;-5.10;99.90
40808;DHT22;26523;52.504;13.498;2022-12-18T00:15:42;-5.00;99.90
40808;DHT22;26523;52.504;13.498;2022-12-18T00:18:09;-5.10;99.90
40808;DHT22;26523;52.504;13.498;2022-12-18T00:20:39;-5.00;99.90
40808;DHT22;26523;52.504;13.498;2022-12-18T00:23:06;-5.00;99.90
40808;DHT22;26523;52.504;13.498;2022-12-18T00:25:34;-5.00;99.90
40808;DHT22;26523;52.504;13.498;2022-12-18T00:28:00;-5.00;99.90
40808;DHT22;26523;52.504;13.498;2022-12-18T00:30:26;-5.10;99.90
40808;DHT22;26523;52.504;13.498;2022-12-18T00:32:52;-5.10;99.90
40808;DHT22;26523;52.504;13.498;2022-12-18T00:35:17;-5.10;99.90
40808;DHT22;26523;52.504;13.498;2022-12-18T00:37:43;-5.20;99.90
40808;DHT22;26523;52.504;13.498;2022-12-18T00:40:09;-5.30;99.90
40808;DHT22;26523;52.504;13.498;2022-12-18T00:42:35;-5.30;99.90
40808;DHT22;26523;52.504;13.498;2022-12-18T00:45:20;-5.30;99.90
40808;DHT22;26523;52.504;13.498;2022-12-18T00:47:45;-5.30;99.90
40808;DHT22;26523;52.504;13.498;2022-12-18T00:50:12;-5.30;99.90
40808;DHT22;26523;52.504;13.498;2022-12-18T00:52:38;-5.30;99.90
40808;DHT22;26523;52.504;13.498;2022-12-18T00:55:05;-5.40;99.90
40808;DHT22;26523;52.504;13.498;2022-12-18T00:57:34;-5.40;99.90
40808;DHT22;26523;52.504;13.498;2022-12-18T01:00:11;-5.40;99.90
40808;DHT22;26523;52.504;13.498;2022-12-18T01:02:37;-5.30;99.90
40808;DHT22;26523;52.504;13.498;2022-12-18T01:05:06;-5.40;99.90
40808;DHT22;26523;52.504;13.498;2022-12-18T01:07:32;-5.40;99.90
40808;DHT22;26523;52.504;13.498;2022-12-18T01:09:58;-5.40;99.90
40808;DHT22;26523;52.504;13.498;2022-12-18T01:12:24;-5.40;99.90
40808;DHT22;26523;52.504;13.498;2022-12-18T01:14:50;-5.40;99.90
40808;DHT22;26523;52.504;13.498;2022-12-18T01:17:16;-5.40;99.90
40808;DHT22;26523;52.504;13.498;2022-12-18T01:19:41;-5.50;99.90
40808;DHT22;26523;52.504;13.498;2022-12-18T01:22:07;-5.50;99.90
40808;DHT22;26523;52.504;13.498;2022-12-18T01:24:33;-5.50;99.90
40808;DHT22;26523;52.504;13.498;2022-12-18T01:26:58;-5.50;99.90
40808;DHT22;26523;52.504;13.498;2022-12-18T01:29:24;-5.50;99.90
40808;DHT22;26523;52.504;13.498;2022-12-18T01:31:50;-5.50;99.90
40808;DHT22;26523;52.504;13.498;2022-12-18T01:34:15;-5.40;99.90
40808;DHT22;26523;52.504;13.498;2022-12-18T01:36:41;-5.40;99.90
40808;DHT22;26523;52.504;13.498;2022-12-18T01:39:12;-5.40;99.90
40808;DHT22;26523;52.504;13.498;2022-12-18T01:41:38;-5.50;99.90
40808;DHT22;26523;52.504;13.498;2022-12-18T01:45:25;-5.50;99.90
40808;DHT22;26523;52.504;13.498;2022-12-18T01:47:47;-5.40;99.90
40808;DHT22;26523;52.504;13.498;2022-12-18T01:50:24;-5.40;99.90
40808;DHT22;26523;52.504;13.498;2022-12-18T01:52:59;-5.40;99.90
40808;DHT22;26523;52.504;13.498;2022-12-18T01:55:29;-5.40;99.90
40808;DHT22;26523;52.504;13.498;2022-12-18T01:57:59;-5.50;99.90
40808;DHT22;26523;52.504;13.498;2022-12-18T02:00:25;-5.50;99.90
40808;DHT22;26523;52.504;13.498;2022-12-18T02:02:52;-5.50;99.90
40808;DHT22;26523;52.504;13.498;2022-12-18T02:11:13;-5.30;99.90
40808;DHT22;26523;52.504;13.498;2022-12-18T02:13:55;-5.40;99.90
40808;DHT22;26523;52.504;13.498;2022-12-18T02:16:41;-5.40;99.90
40808;DHT22;26523;52.504;13.498;2022-12-18T02:22:25;-5.40;99.90
40808;DHT22;26523;52.504;13.498;2022-12-18T02:27:27;-5.40;99.90
40808;DHT22;26523;52.504;13.498;2022-12-18T02:29:55;-5.40;99.90
40808;DHT22;26523;52.504;13.498;2022-12-18T02:32:32;-5.40;99.90
40808;DHT22;26523;52.504;13.498;2022-12-18T02:34:59;-5.40;99.90
40808;DHT22;26523;52.504;13.498;2022-12-18T02:37:28;-5.40;99.90
40808;DHT22;26523;52.504;13.498;2022-12-18T02:39:57;-5.40;99.90
40808;DHT22;26523;52.504;13.498;2022-12-18T02:42:24;-5.50;99.90
40808;DHT22;26523;52.504;13.498;2022-12-18T02:44:51;-5.50;99.90
40808;DHT22;26523;52.504;13.498;2022-12-18T02:47:22;-5.50;99.90
40808;DHT22;26523;52.504;13.498;2022-12-18T03:00:28;-5.60;99.90
40808;DHT22;26523;52.504;13.498;2022-12-18T03:03:04;-5.70;99.90
40808;DHT22;26523;52.504;13.498;2022-12-18T03:05:42;-5.70;99.90
40808;DHT22;26523;52.504;13.498;2022-12-18T03:08:15;-5.80;99.90
40808;DHT22;26523;52.504;13.498;2022-12-18T03:10:51;-5.90;99.90
40808;DHT22;26523;52.504;13.498;2022-12-18T03:13:27;-5.80;99.90
40808;DHT22;26523;52.504;13.498;2022-12-18T03:15:55;-5.80;99.90
40808;DHT22;26523;52.504;13.498;2022-12-18T03:18:25;-5.80;99.90
40808;DHT22;26523;52.504;13.498;2022-12-18T03:20:56;-5.80;99.90
40808;DHT22;26523;52.504;13.498;2022-12-18T03:23:27;-5.70;99.90
40808;DHT22;26523;52.504;13.498;2022-12-18T03:25:57;-5.70;99.90
40808;DHT22;26523;52.504;13.498;2022-12-18T03:28:24;-5.80;99.90
40808;DHT22;26523;52.504;13.498;2022-12-18T03:30:56;-5.80;99.90
40808;DHT22;26523;52.504;13.498;2022-12-18T03:33:29;-5.90;99.90
40808;DHT22;26523;52.504;13.498;2022-12-18T03:35:57;-6.00;99.90
40808;DHT22;26523;52.504;13.498;2022-12-18T03:38:22;-6.00;99.90
40808;DHT22;26523;52.504;13.498;2022-12-18T03:41:02;-6.00;99.90
40808;DHT22;26523;52.504;13.498;2022-12-18T03:43:52;-6.00;99.90
40808;DHT22;26523;52.504;13.498;2022-12-18T03:49:29;-5.90;99.90
40808;DHT22;26523;52.504;13.498;2022-12-18T03:52:06;-6.00;99.90
40808;DHT22;26523;52.504;13.498;2022-12-18T03:54:35;-5.90;99.90
40808;DHT22;26523;52.504;13.498;2022-12-18T03:57:10;-6.00;99.90
40808;DHT22;26523;52.504;13.498;2022-12-18T03:59:37;-6.00;99.90
40808;DHT22;26523;52.504;13.498;2022-12-18T04:02:04;-6.00;99.90
40808;DHT22;26523;52.504;13.498;2022-12-18T04:04:32;-6.00;99.90
40808;DHT22;26523;52.504;13.498;2022-12-18T04:06:59;-6.00;99.90
40808;DHT22;26523;52.504;13.498;2022-12-18T04:09:25;-6.10;99.90
40808;DHT22;26523;52.504;13.498;2022-12-18T04:11:51;-6.10;99.90
40808;DHT22;26523;52.504;13.498;2022-12-18T04:14:17;-6.10;99.90
40808;DHT22;26523;52.504;13.498;2022-12-18T04:16:43;-6.10;99.90
40808;DHT22;26523;52.504;13.498;2022-12-18T04:19:08;-6.10;99.90
40808;DHT22;26523;52.504;13.498;2022-12-18T04:21:34;-6.10;99.90
40808;DHT22;26523;52.504;13.498;2022-12-18T04:24:00;-6.10;99.90
40808;DHT22;26523;52.504;13.498;2022-12-18T04:26:25;-6.00;99.90
40808;DHT22;26523;52.504;13.498;2022-12-18T04:28:51;-6.10;99.90
40808;DHT22;26523;52.504;13.498;2022-12-18T04:31:17;-6.10;99.90
40808;DHT22;26523;52.504;13.498;2022-12-18T04:33:42;-6.10;99.90
40808;DHT22;26523;52.504;13.498;2022-12-18T04:36:08;-6.10;99.90
40808;DHT22;26523;52.504;13.498;2022-12-18T04:38:34;-6.10;99.90
40808;DHT22;26523;52.504;13.498;2022-12-18T04:40:59;-6.10;99.90
40808;DHT22;26523;52.504;13.498;2022-12-18T04:43:25;-6.00;99.90
40808;DHT22;26523;52.504;13.498;2022-12-18T04:45:51;-6.00;99.90
40808;DHT22;26523;52.504;13.498;2022-12-18T04:48:16;-6.00;99.90
40808;DHT22;26523;52.504;13.498;2022-12-18T04:50:42;-6.10;99.90
40808;DHT22;26523;52.504;13.498;2022-12-18T04:53:08;-6.00;99.90
40808;DHT22;26523;52.504;13.498;2022-12-18T04:55:33;-6.10;99.90
40808;DHT22;26523;52.504;13.498;2022-12-18T04:57:59;-6.20;99.90
40808;DHT22;26523;52.504;13.498;2022-12-18T05:00:25;-6.20;99.90
40808;DHT22;26523;52.504;13.498;2022-12-18T05:02:50;-6.20;99.90
40808;DHT22;26523;52.504;13.498;2022-12-18T05:05:16;-6.20;99.90
40808;DHT22;26523;52.504;13.498;2022-12-18T05:07:41;-6.20;99.90
40808;DHT22;26523;52.504;13.498;2022-12-18T05:10:08;-6.20;99.90
40808;DHT22;26523;52.504;13.498;2022-12-18T05:12:33;-6.30;99.90
40808;DHT22;26523;52.504;13.498;2022-12-18T05:14:59;-6.30;99.90
40808;DHT22;26523;52.504;13.498;2022-12-18T05:17:25;-6.30;99.90
40808;DHT22;26523;52.504;13.498;2022-12-18T05:19:50;-6.30;99.90
40808;DHT22;26523;52.504;13.498;2022-12-18T05:22:16;-6.30;99.90
40808;DHT22;26523;52.504;13.498;2022-12-18T05:24:42;-6.20;99.90
40808;DHT22;26523;52.504;13.498;2022-12-18T05:27:07;-6.30;99.90
40808;DHT22;26523;52.504;13.498;2022-12-18T05:29:33;-6.30;99.90
40808;DHT22;26523;52.504;13.498;2022-12-18T05:31:58;-6.30;99.90
40808;DHT22;26523;52.504;13.498;2022-12-18T05:34:24;-6.20;99.90
40808;DHT22;26523;52.504;13.498;2022-12-18T05:36:50;-6.20;99.90
40808;DHT22;26523;52.504;13.498;2022-12-18T05:39:15;-6.30;99.90
40808;DHT22;26523;52.504;13.498;2022-12-18T05:41:41;-6.20;99.90
40808;DHT22;26523;52.504;13.498;2022-12-18T05:44:07;-6.10;99.90
40808;DHT22;26523;52.504;13.498;2022-12-18T05:46:33;-6.10;99.90
40808;DHT22;26523;52.504;13.498;2022-12-18T05:49:01;-6.10;99.90
40808;DHT22;26523;52.504;13.498;2022-12-18T05:51:27;-6.10;99.90
40808;DHT22;26523;52.504;13.498;2022-12-18T05:53:53;-6.00;99.90
40808;DHT22;26523;52.504;13.498;2022-12-18T05:56:21;-5.90;99.90
40808;DHT22;26523;52.504;13.498;2022-12-18T05:58:47;-5.90;99.90
40808;DHT22;26523;52.504;13.498;2022-12-18T06:01:19;-5.90;99.90
40808;DHT22;26523;52.504;13.498;2022-12-18T06:03:45;-5.80;99.90
40808;DHT22;26523;52.504;13.498;2022-12-18T06:06:16;-5.90;99.90
40808;DHT22;26523;52.504;13.498;2022-12-18T06:08:42;-5.80;99.90
40808;DHT22;26523;52.504;13.498;2022-12-18T06:11:08;-5.90;99.90
40808;DHT22;26523;52.504;13.498;2022-12-18T06:13:33;-5.80;99.90
40808;DHT22;26523;52.504;13.498;2022-12-18T06:16:02;-5.90;99.90
40808;DHT22;26523;52.504;13.498;2022-12-18T06:18:28;-5.90;99.90
40808;DHT22;26523;52.504;13.498;2022-12-18T06:20:55;-5.80;99.90
40808;DHT22;26523;52.504;13.498;2022-12-18T06:23:21;-5.90;99.90
40808;DHT22;26523;52.504;13.498;2022-12-18T06:25:47;-5.90;99.90
40808;DHT22;26523;52.504;13.498;2022-12-18T06:28:13;-5.80;99.90
40808;DHT22;26523;52.504;13.498;2022-12-18T06:30:38;-5.90;99.90
40808;DHT22;26523;52.504;13.498;2022-12-18T06:33:04;-5.90;99.90
40808;DHT22;26523;52.504;13.498;2022-12-18T06:35:29;-5.80;99.90
40808;DHT22;26523;52.504;13.498;2022-12-18T06:37:56;-5.80;99.90
40808;DHT22;26523;52.504;13.498;2022-12-18T06:40:22;-5.80;99.90
40808;DHT22;26523;52.504;13.498;2022-12-18T06:42:48;-5.80;99.90
40808;DHT22;26523;52.504;13.498;2022-12-18T06:45:14;-5.90;99.90
40808;DHT22;26523;52.504;13.498;2022-12-18T06:47:40;-5.80;99.90
40808;DHT22;26523;52.504;13.498;2022-12-18T06:50:06;-5.90;99.90
40808;DHT22;26523;52.504;13.498;2022-12-18T06:52:32;-6.00;99.90
40808;DHT22;26523;52.504;13.498;2022-12-18T06:55:00;-6.00;99.90
40808;DHT22;26523;52.504;13.498;2022-12-18T06:57:25;-5.90;99.90
40808;DHT22;26523;52.504;13.498;2022-12-18T06:59:51;-5.90;99.90
40808;DHT22;26523;52.504;13.498;2022-12-18T07:02:17;-5.90;99.90
40808;DHT22;26523;52.504;13.498;2022-12-18T07:04:43;-5.90;99.90
40808;DHT22;26523;52.504;13.498;2022-12-18T07:07:08;-6.00;99.90
40808;DHT22;26523;52.504;13.498;2022-12-18T07:09:34;-6.00;99.90
40808;DHT22;26523;52.504;13.498;2022-12-18T07:12:00;-6.10;99.90
40808;DHT22;26523;52.504;13.498;2022-12-18T07:14:25;-6.10;99.90
40808;DHT22;26523;52.504;13.498;2022-12-18T07:16:51;-6.10;99.90
40808;DHT22;26523;52.504;13.498;2022-12-18T07:19:16;-6.10;99.90
40808;DHT22;26523;52.504;13.498;2022-12-18T07:21:42;-6.00;99.90
40808;DHT22;26523;52.504;13.498;2022-12-18T07:24:08;-6.00;99.90
40808;DHT22;26523;52.504;13.498;2022-12-18T07:26:33;-5.90;99.90
40808;DHT22;26523;52.504;13.498;2022-12-18T07:28:59;-6.00;99.90
40808;DHT22;26523;52.504;13.498;2022-12-18T07:31:25;-6.00;99.90
40808;DHT22;26523;52.504;13.498;2022-12-18T07:33:51;-6.00;99.90
40808;DHT22;26523;52.504;13.498;2022-12-18T07:36:18;-5.90;99.90
40808;DHT22;26523;52.504;13.498;2022-12-18T07:38:46;-6.00;99.90
40808;DHT22;26523;52.504;13.498;2022-12-18T07:41:13;-5.90;99.90
40808;DHT22;26523;52.504;13.498;2022-12-18T07:43:40;-5.90;99.90
40808;DHT22;26523;52.504;13.498;2022-12-18T07:46:07;-5.80;99.90
40808;DHT22;26523;52.504;13.498;2022-12-18T07:48:34;-5.80;99.90
40808;DHT22;26523;52.504;13.498;2022-12-18T07:51:00;-5.70;99.90
40808;DHT22;26523;52.504;13.498;2022-12-18T07:53:27;-5.80;99.90
40808;DHT22;26523;52.504;13.498;2022-12-18T07:55:57;-5.80;99.90
40808;DHT22;26523;52.504;13.498;2022-12-18T07:58:22;-5.80;99.90
40808;DHT22;26523;52.504;13.498;2022-12-18T08:00:48;-5.90;99.90
40808;DHT22;26523;52.504;13.498;2022-12-18T08:03:13;-6.00;99.90
40808;DHT22;26523;52.504;13.498;2022-12-18T08:05:39;-5.90;99.90
40808;DHT22;26523;52.504;13.498;2022-12-18T08:08:05;-6.00;99.90
40808;DHT22;26523;52.504;13.498;2022-12-18T08:10:31;-5.90;99.90
40808;DHT22;26523;52.504;13.498;2022-12-18T08:12:56;-5.80;99.90
40808;DHT22;26523;52.504;13.498;2022-12-18T08:15:22;-5.90;99.90
40808;DHT22;26523;52.504;13.498;2022-12-18T08:17:48;-5.90;99.90
40808;DHT22;26523;52.504;13.498;2022-12-18T08:20:13;-5.90;99.90
40808;DHT22;26523;52.504;13.498;2022-12-18T08:22:44;-5.80;99.90
40808;DHT22;26523;52.504;13.498;2022-12-18T08:25:10;-5.80;99.90
40808;DHT22;26523;52.504;13.498;2022-12-18T08:27:36;-5.70;99.90
40808;DHT22;26523;52.504;13.498;2022-12-18T08:30:03;-5.70;99.90
40808;DHT22;26523;52.504;13.498;2022-12-18T08:32:28;-5.60;99.90
40808;DHT22;26523;52.504;13.498;2022-12-18T08:34:54;-5.50;99.90
40808;DHT22;26523;52.504;13.498;2022-12-18T08:37:20;-5.50;99.90
40808;DHT22;26523;52.504;13.498;2022-12-18T08:39:45;-5.50;99.90
40808;DHT22;26523;52.504;13.498;2022-12-18T08:42:11;-5.60;99.90
40808;DHT22;26523;52.504;13.498;2022-12-18T08:44:55;-5.50;99.90
40808;DHT22;26523;52.504;13.498;2022-12-18T08:47:21;-5.50;99.90
40808;DHT22;26523;52.504;13.498;2022-12-18T08:49:47;-5.40;99.90
40808;DHT22;26523;52.504;13.498;2022-12-18T08:52:12;-5.50;99.90
40808;DHT22;26523;52.504;13.498;2022-12-18T08:54:40;-5.40;99.90
40808;DHT22;26523;52.504;13.498;2022-12-18T08:57:06;-5.40;99.90
40808;DHT22;26523;52.504;13.498;2022-12-18T08:59:32;-5.40;99.90
40808;DHT22;26523;52.504;13.498;2022-12-18T09:01:57;-5.30;99.90
40808;DHT22;26523;52.504;13.498;2022-12-18T09:04:23;-5.30;99.90
40808;DHT22;26523;52.504;13.498;2022-12-18T09:06:49;-5.10;99.90
40808;DHT22;26523;52.504;13.498;2022-12-18T09:09:14;-5.10;99.90
40808;DHT22;26523;52.504;13.498;2022-12-18T09:11:40;-5.10;99.90
40808;DHT22;26523;52.504;13.498;2022-12-18T09:14:06;-5.00;99.90
40808;DHT22;26523;52.504;13.498;2022-12-18T09:16:32;-5.00;99.90
40808;DHT22;26523;52.504;13.498;2022-12-18T09:19:00;-5.00;99.90
40808;DHT22;26523;52.504;13.498;2022-12-18T09:21:28;-4.90;99.90
40808;DHT22;26523;52.504;13.498;2022-12-18T09:23:55;-4.90;99.90
40808;DHT22;26523;52.504;13.498;2022-12-18T09:26:22;-4.70;99.90
40808;DHT22;26523;52.504;13.498;2022-12-18T09:28:48;-4.70;99.90
40808;DHT22;26523;52.504;13.498;2022-12-18T09:31:14;-4.70;99.90
40808;DHT22;26523;52.504;13.498;2022-12-18T09:33:40;-4.70;99.90
40808;DHT22;26523;52.504;13.498;2022-12-18T09:36:08;-4.70;99.90
40808;DHT22;26523;52.504;13.498;2022-12-18T09:38:35;-4.60;99.90
40808;DHT22;26523;52.504;13.498;2022-12-18T09:43:52;-4.60;99.90
40808;DHT22;26523;52.504;13.498;2022-12-18T09:46:25;-4.60;99.90
40808;DHT22;26523;52.504;13.498;2022-12-18T09:48:55;-4.60;99.90
40808;DHT22;26523;52.504;13.498;2022-12-18T09:52:25;-4.40;99.90
40808;DHT22;26523;52.504;13.498;2022-12-18T09:54:35;-4.30;99.90
40808;DHT22;26523;52.504;13.498;2022-12-18T09:57:01;-4.30;99.90
40808;DHT22;26523;52.504;13.498;2022-12-18T09:59:36;-4.20;99.90
40808;DHT22;26523;52.504;13.498;2022-12-18T10:02:21;-4.20;99.90
40808;DHT22;26523;52.504;13.498;2022-12-18T10:10:10;-4.20;99.90
40808;DHT22;26523;52.504;13.498;2022-12-18T10:12:48;-4.20;99.90
40808;DHT22;26523;52.504;13.498;2022-12-18T10:15:33;-4.20;99.90
40808;DHT22;26523;52.504;13.498;2022-12-18T10:20:29;-4.10;99.90
40808;DHT22;26523;52.504;13.498;2022-12-18T10:22:58;-4.10;99.90
40808;DHT22;26523;52.504;13.498;2022-12-18T10:28:16;-4.00;99.90
40808;DHT22;26523;52.504;13.498;2022-12-18T10:30:43;-4.10;99.90
40808;DHT22;26523;52.504;13.498;2022-12-18T10:33:16;-4.10;99.90
40808;DHT22;26523;52.504;13.498;2022-12-18T10:35:42;-4.10;99.90
40808;DHT22;26523;52.504;13.498;2022-12-18T10:43:32;-4.10;99.90
40808;DHT22;26523;52.504;13.498;2022-12-18T10:46:03;-4.00;99.90
40808;DHT22;26523;52.504;13.498;2022-12-18T10:48:55;-4.00;99.90
40808;DHT22;26523;52.504;13.498;2022-12-18T10:51:28;-4.00;99.90
40808;DHT22;26523;52.504;13.498;2022-12-18T10:56:26;-3.90;99.90
40808;DHT22;26523;52.504;13.498;2022-12-18T10:59:07;-3.90;99.90
40808;DHT22;26523;52.504;13.498;2022-12-18T11:01:47;-3.90;99.90
40808;DHT22;26523;52.504;13.498;2022-12-18T11:04:22;-3.80;99.90
40808;DHT22;26523;52.504;13.498;2022-12-18T11:07:08;-3.80;99.90
40808;DHT22;26523;52.504;13.498;2022-12-18T11:09:37;-3.80;99.90
40808;DHT22;26523;52.504;13.498;2022-12-18T11:12:19;-3.90;99.90
40808;DHT22;26523;52.504;13.498;2022-12-18T11:14:48;-3.90;99.90
40808;DHT22;26523;52.504;13.498;2022-12-18T11:17:25;-3.80;99.90
40808;DHT22;26523;52.504;13.498;2022-12-18T11:19:59;-3.70;99.90
40808;DHT22;26523;52.504;13.498;2022-12-18T11:22:32;-3.80;99.90
40808;DHT22;26523;52.504;13.498;2022-12-18T11:25:21;-3.90;99.90
40808;DHT22;26523;52.504;13.498;2022-12-18T11:30:27;-3.70;99.90
40808;DHT22;26523;52.504;13.498;2022-12-18T11:33:00;-3.80;99.90
40808;DHT22;26523;52.504;13.498;2022-12-18T11:36:00;-3.90;99.90
40808;DHT22;26523;52.504;13.498;2022-12-18T11:38:40;-3.90;99.90
40808;DHT22;26523;52.504;13.498;2022-12-18T11:41:23;-3.80;99.90
40808;DHT22;26523;52.504;13.498;2022-12-18T11:44:13;-3.80;99.90
40808;DHT22;26523;52.504;13.498;2022-12-18T11:46:58;-3.80;99.90
40808;DHT22;26523;52.504;13.498;2022-12-18T11:49:32;-3.80;99.90
40808;DHT22;26523;52.504;13.498;2022-12-18T11:52:23;-3.70;99.90
40808;DHT22;26523;52.504;13.498;2022-12-18T11:54:58;-3.80;99.90
40808;DHT22;26523;52.504;13.498;2022-12-18T11:57:32;-3.80;99.90
40808;DHT22;26523;52.504;13.498;2022-12-18T12:00:16;-3.70;99.90
40808;DHT22;26523;52.504;13.498;2022-12-18T12:10:59;-3.80;99.90
40808;DHT22;26523;52.504;13.498;2022-12-18T12:19:15;-3.60;99.90
40808;DHT22;26523;52.504;13.498;2022-12-18T12:21:52;-3.50;99.90
40808;DHT22;26523;52.504;13.498;2022-12-18T12:30:20;-3.50;99.90
40808;DHT22;26523;52.504;13.498;2022-12-18T12:40:35;-3.70;99.90
40808;DHT22;26523;52.504;13.498;2022-12-18T12:46:10;-3.80;99.90
40808;DHT22;26523;52.504;13.498;2022-12-18T12:51:08;-3.60;99.90
40808;DHT22;26523;52.504;13.498;2022-12-18T12:53:37;-3.70;99.90
40808;DHT22;26523;52.504;13.498;2022-12-18T12:56:04;-3.70;99.90
40808;DHT22;26523;52.504;13.498;2022-12-18T13:09:30;-3.60;99.90
40808;DHT22;26523;52.504;13.498;2022-12-18T13:12:07;-3.60;99.90
40808;DHT22;26523;52.504;13.498;2022-12-18T13:14:53;-3.60;99.90
40808;DHT22;26523;52.504;13.498;2022-12-18T13:19:52;-3.70;99.90
40808;DHT22;26523;52.504;13.498;2022-12-18T13:22:37;-3.60;99.90
40808;DHT22;26523;52.504;13.498;2022-12-18T13:25:30;-3.60;99.90
40808;DHT22;26523;52.504;13.498;2022-12-18T13:28:16;-3.60;99.90
40808;DHT22;26523;52.504;13.498;2022-12-18T13:30:43;-3.60;99.90
40808;DHT22;26523;52.504;13.498;2022-12-18T13:46:00;-3.70;99.90
40808;DHT22;26523;52.504;13.498;2022-12-18T13:48:29;-3.80;99.90
40808;DHT22;26523;52.504;13.498;2022-12-18T13:51:03;-3.70;99.90
40808;DHT22;26523;52.504;13.498;2022-12-18T13:54:17;-3.80;99.90
40808;DHT22;26523;52.504;13.498;2022-12-18T13:56:46;-4.00;99.90
40808;DHT22;26523;52.504;13.498;2022-12-18T13:59:19;-4.00;99.90
40808;DHT22;26523;52.504;13.498;2022-12-18T14:04:33;-4.10;99.90
40808;DHT22;26523;52.504;13.498;2022-12-18T14:07:06;-4.00;99.90
40808;DHT22;26523;52.504;13.498;2022-12-18T14:09:40;-3.90;99.90
40808;DHT22;26523;52.504;13.498;2022-12-18T14:12:06;-3.90;99.90
40808;DHT22;26523;52.504;13.498;2022-12-18T14:14:56;-3.90;99.90
40808;DHT22;26523;52.504;13.498;2022-12-18T14:20:52;-3.90;99.90
40808;DHT22;26523;52.504;13.498;2022-12-18T14:23:33;-4.00;99.90
40808;DHT22;26523;52.504;13.498;2022-12-18T14:26:00;-4.00;99.90
40808;DHT22;26523;52.504;13.498;2022-12-18T14:28:26;-4.10;99.90
40808;DHT22;26523;52.504;13.498;2022-12-18T14:30:52;-4.00;99.90
40808;DHT22;26523;52.504;13.498;2022-12-18T14:33:27;-4.00;99.90
40808;DHT22;26523;52.504;13.498;2022-12-18T14:36:04;-4.10;99.90
40808;DHT22;26523;52.504;13.498;2022-12-18T14:38:32;-4.00;99.90
40808;DHT22;26523;52.504;13.498;2022-12-18T14:41:00;-4.00;99.90
40808;DHT22;26523;52.504;13.498;2022-12-18T14:43:28;-4.00;99.90
40808;DHT22;26523;52.504;13.498;2022-12-18T14:45:55;-4.00;99.90
40808;DHT22;26523;52.504;13.498;2022-12-18T14:48:39;-4.00;99.90
40808;DHT22;26523;52.504;13.498;2022-12-18T14:51:06;-4.00;99.90
40808;DHT22;26523;52.504;13.498;2022-12-18T14:53:47;-4.00;99.90
40808;DHT22;26523;52.504;13.498;2022-12-18T14:56:25;-4.00;99.90
40808;DHT22;26523;52.504;13.498;2022-12-18T14:58:58;-4.00;99.90
40808;DHT22;26523;52.504;13.498;2022-12-18T15:01:26;-4.00;99.90
40808;DHT22;26523;52.504;13.498;2022-12-18T15:03:53;-4.00;99.90
40808;DHT22;26523;52.504;13.498;2022-12-18T15:06:29;-4.10;99.90
40808;DHT22;26523;52.504;13.498;2022-12-18T15:08:56;-4.10;99.90
40808;DHT22;26523;52.504;13.498;2022-12-18T15:14:43;-4.10;99.90
40808;DHT22;26523;52.504;13.498;2022-12-18T15:17:21;-4.00;99.90
40808;DHT22;26523;52.504;13.498;2022-12-18T15:19:48;-4.10;99.90
40808;DHT22;26523;52.504;13.498;2022-12-18T15:24:49;-4.10;99.90
40808;DHT22;26523;52.504;13.498;2022-12-18T15:27:33;-4.10;99.90
40808;DHT22;26523;52.504;13.498;2022-12-18T15:32:26;-4.20;99.90
40808;DHT22;26523;52.504;13.498;2022-12-18T15:35:03;-4.10;99.90
40808;DHT22;26523;52.504;13.498;2022-12-18T15:37:29;-4.10;99.90
40808;DHT22;26523;52.504;13.498;2022-12-18T15:39:54;-4.10;99.90
40808;DHT22;26523;52.504;13.498;2022-12-18T15:42:20;-4.10;99.90
40808;DHT22;26523;52.504;13.498;2022-12-18T15:45:04;-4.10;99.90
40808;DHT22;26523;52.504;13.498;2022-12-18T15:47:30;-4.10;99.90
40808;DHT22;26523;52.504;13.498;2022-12-18T15:49:56;-4.10;99.90
40808;DHT22;26523;52.504;13.498;2022-12-18T15:52:21;-4.20;99.90
40808;DHT22;26523;52.504;13.498;2022-12-18T15:54:51;-4.20;99.90
40808;DHT22;26523;52.504;13.498;2022-12-18T15:57:35;-4.20;99.90
40808;DHT22;26523;52.504;13.498;2022-12-18T16:00:01;-4.20;99.90
40808;DHT22;26523;52.504;13.498;2022-12-18T16:02:27;-4.20;99.90
40808;DHT22;26523;52.504;13.498;2022-12-18T16:04:53;-4.20;99.90
40808;DHT22;26523;52.504;13.498;2022-12-18T16:07:19;-4.20;99.90
40808;DHT22;26523;52.504;13.498;2022-12-18T16:09:45;-4.20;99.90
40808;DHT22;26523;52.504;13.498;2022-12-18T16:12:16;-4.30;99.90
40808;DHT22;26523;52.504;13.498;2022-12-18T16:14:42;-4.20;99.90
40808;DHT22;26523;52.504;13.498;2022-12-18T16:17:12;-4.20;99.90
40808;DHT22;26523;52.504;13.498;2022-12-18T16:19:38;-4.30;99.90
40808;DHT22;26523;52.504;13.498;2022-12-18T16:22:04;-4.30;99.90
40808;DHT22;26523;52.504;13.498;2022-12-18T16:24:32;-4.30;99.90
40808;DHT22;26523;52.504;13.498;2022-12-18T16:26:59;-4.30;99.90
40808;DHT22;26523;52.504;13.498;2022-12-18T16:29:26;-4.30;99.90
40808;DHT22;26523;52.504;13.498;2022-12-18T16:32:00;-4.30;99.90
40808;DHT22;26523;52.504;13.498;2022-12-18T16:34:30;-4.30;99.90
40808;DHT22;26523;52.504;13.498;2022-12-18T16:36:58;-4.30;99.90
40808;DHT22;26523;52.504;13.498;2022-12-18T16:39:25;-4.40;99.90
40808;DHT22;26523;52.504;13.498;2022-12-18T16:41:50;-4.30;99.90
40808;DHT22;26523;52.504;13.498;2022-12-18T16:44:16;-4.30;99.90
40808;DHT22;26523;52.504;13.498;2022-12-18T16:46:42;-4.30;99.90
40808;DHT22;26523;52.504;13.498;2022-12-18T16:49:12;-4.30;99.90
40808;DHT22;26523;52.504;13.498;2022-12-18T16:51:38;-4.30;99.90
40808;DHT22;26523;52.504;13.498;2022-12-18T16:54:04;-4.40;99.90
40808;DHT22;26523;52.504;13.498;2022-12-18T16:56:30;-4.40;99.90
40808;DHT22;26523;52.504;13.498;2022-12-18T16:58:58;-4.50;99.90
40808;DHT22;26523;52.504;13.498;2022-12-18T17:01:26;-4.60;99.90
40808;DHT22;26523;52.504;13.498;2022-12-18T17:03:53;-4.70;99.90
40808;DHT22;26523;52.504;13.498;2022-12-18T17:06:20;-4.70;99.90
40808;DHT22;26523;52.504;13.498;2022-12-18T17:08:46;-4.70;99.90
40808;DHT22;26523;52.504;13.498;2022-12-18T17:11:12;-4.60;99.90
40808;DHT22;26523;52.504;13.498;2022-12-18T17:13:37;-4.70;99.90
40808;DHT22;26523;52.504;13.498;2022-12-18T17:16:04;-4.80;99.90
40808;DHT22;26523;52.504;13.498;2022-12-18T17:18:31;-4.80;99.90
40808;DHT22;26523;52.504;13.498;2022-12-18T17:21:01;-4.90;99.90
40808;DHT22;26523;52.504;13.498;2022-12-18T17:23:28;-4.90;99.90
40808;DHT22;26523;52.504;13.498;2022-12-18T17:25:58;-5.10;99.90
40808;DHT22;26523;52.504;13.498;2022-12-18T17:28:25;-5.10;99.90
40808;DHT22;26523;52.504;13.498;2022-12-18T17:30:55;-5.10;99.90
40808;DHT22;26523;52.504;13.498;2022-12-18T17:33:21;-5.10;99.90